sensor_id;sensor_type;location;lat;lon;timestamp;temperature;humidity
55693;DHT22;41590;53.366;5.212;2022-10-17T00:00:10;13.10;99.90
55693;DHT22;41590;53.366;5.212;2022-10-17T00:02:36;13.10;99.90
55693;DHT22;41590;53.366;5.212;2022-10-17T00:05:04;13.20;99.90
55693;DHT22;41590;53.366;5.212;2022-10-17T00:07:34;13.00;99.90
55693;DHT22;41590;53.366;5.212;2022-10-17T00:10:01;13.20;99.90
55693;DHT22;41590;53.366;5.212;2022-10-17T00:12:27;13.00;99.90
55693;DHT22;41590;53.366;5.212;2022-10-17T00:14:52;13.10;99.90
55693;DHT22;41590;53.366;5.212;2022-10-17T00:17:18;13.00;99.90
55693;DHT22;41590;53.366;5.212;2022-10-17T00:19:48;13.00;99.90
55693;DHT22;41590;53.366;5.212;2022-10-17T00:22:14;13.00;99.90
55693;DHT22;41590;53.366;5.212;2022-10-17T00:24:39;13.10;99.90
55693;DHT22;41590;53.366;5.212;2022-10-17T00:27:05;12.90;99.90
55693;DHT22;41590;53.366;5.212;2022-10-17T00:29:31;13.00;99.90
55693;DHT22;41590;53.366;5.212;2022-10-17T00:32:01;12.90;99.90
55693;DHT22;41590;53.366;5.212;2022-10-17T00:34:30;13.00;99.90
55693;DHT22;41590;53.366;5.212;2022-10-17T00:36:57;13.10;99.90
55693;DHT22;41590;53.366;5.212;2022-10-17T00:39:23;13.20;99.90
55693;DHT22;41590;53.366;5.212;2022-10-17T00:41:50;13.10;99.90
55693;DHT22;41590;53.366;5.212;2022-10-17T00:46:54;13.20;99.90
55693;DHT22;41590;53.366;5.212;2022-10-17T00:49:22;13.00;99.90
55693;DHT22;41590;53.366;5.212;2022-10-17T00:51:53;13.20;99.90
55693;DHT22;41590;53.366;5.212;2022-10-17T00:54:23;13.10;99.90
55693;DHT22;41590;53.366;5.212;2022-10-17T00:56:50;13.20;99.90
55693;DHT22;41590;53.366;5.212;2022-10-17T00:59:18;13.10;99.90
55693;DHT22;41590;53.366;5.212;2022-10-17T01:01:59;13.20;99.90
55693;DHT22;41590;53.366;5.212;2022-10-17T01:04:26;13.30;99.90
55693;DHT22;41590;53.366;5.212;2022-10-17T01:06:53;13.10;99.90
55693;DHT22;41590;53.366;5.212;2022-10-17T01:09:19;13.10;99.90
55693;DHT22;41590;53.366;5.212;2022-10-17T01:14:22;13.30;99.90
55693;DHT22;41590;53.366;5.212;2022-10-17T01:16:57;13.10;99.90
55693;DHT22;41590;53.366;5.212;2022-10-17T01:19:40;13.10;99.90
55693;DHT22;41590;53.366;5.212;2022-10-17T01:33:16;13.10;99.90
55693;DHT22;41590;53.366;5.212;2022-10-17T01:35:59;13.20;99.90
55693;DHT22;41590;53.366;5.212;2022-10-17T01:39:05;13.10;99.90
55693;DHT22;41590;53.366;5.212;2022-10-17T01:44:19;13.30;99.90
55693;DHT22;41590;53.366;5.212;2022-10-17T01:46:49;13.30;99.90
55693;DHT22;41590;53.366;5.212;2022-10-17T01:49:21;13.10;99.90
55693;DHT22;41590;53.366;5.212;2022-10-17T01:51:58;13.20;99.90
55693;DHT22;41590;53.366;5.212;2022-10-17T01:54:56;13.20;99.90
55693;DHT22;41590;53.366;5.212;2022-10-17T01:57:37;13.20;99.90
55693;DHT22;41590;53.366;5.212;2022-10-17T02:00:08;13.20;99.90
55693;DHT22;41590;53.366;5.212;2022-10-17T02:02:36;13.40;99.90
55693;DHT22;41590;53.366;5.212;2022-10-17T02:05:04;13.10;99.90
55693;DHT22;41590;53.366;5.212;2022-10-17T02:07:45;13.20;99.90
55693;DHT22;41590;53.366;5.212;2022-10-17T02:24:44;13.30;99.90
55693;DHT22;41590;53.366;5.212;2022-10-17T02:30:08;13.20;99.90
55693;DHT22;41590;53.366;5.212;2022-10-17T02:32:48;13.20;99.90
55693;DHT22;41590;53.366;5.212;2022-10-17T02:35:19;13.40;99.90
55693;DHT22;41590;53.366;5.212;2022-10-17T02:37:46;13.50;99.90
55693;DHT22;41590;53.366;5.212;2022-10-17T02:40:14;13.40;99.90
55693;DHT22;41590;53.366;5.212;2022-10-17T02:42:43;13.50;99.90
55693;DHT22;41590;53.366;5.212;2022-10-17T02:45:12;13.20;99.90
55693;DHT22;41590;53.366;5.212;2022-10-17T02:53:09;13.40;99.90
55693;DHT22;41590;53.366;5.212;2022-10-17T02:56:11;13.20;99.90
55693;DHT22;41590;53.366;5.212;2022-10-17T02:58:35;13.10;99.90
55693;DHT22;41590;53.366;5.212;2022-10-17T03:01:03;13.10;99.90
55693;DHT22;41590;53.366;5.212;2022-10-17T03:03:31;13.00;99.90
55693;DHT22;41590;53.366;5.212;2022-10-17T03:05:56;13.30;99.90
55693;DHT22;41590;53.366;5.212;2022-10-17T03:08:23;13.20;99.90
55693;DHT22;41590;53.366;5.212;2022-10-17T03:10:49;13.00;99.90
55693;DHT22;41590;53.366;5.212;2022-10-17T03:13:17;13.30;99.90
55693;DHT22;41590;53.366;5.212;2022-10-17T03:15:49;13.20;99.90
55693;DHT22;41590;53.366;5.212;2022-10-17T03:18:17;13.20;99.90
55693;DHT22;41590;53.366;5.212;2022-10-17T03:20:42;13.10;99.90
55693;DHT22;41590;53.366;5.212;2022-10-17T03:23:08;13.00;99.90
55693;DHT22;41590;53.366;5.212;2022-10-17T03:25:35;13.30;99.90
55693;DHT22;41590;53.366;5.212;2022-10-17T03:28:02;13.20;99.90
55693;DHT22;41590;53.366;5.212;2022-10-17T03:30:32;13.30;99.90
55693;DHT22;41590;53.366;5.212;2022-10-17T03:32:58;13.30;99.90
55693;DHT22;41590;53.366;5.212;2022-10-17T03:35:25;13.40;99.90
55693;DHT22;41590;53.366;5.212;2022-10-17T03:37:51;13.10;99.90
55693;DHT22;41590;53.366;5.212;2022-10-17T03:40:17;13.50;99.90
55693;DHT22;41590;53.366;5.212;2022-10-17T03:42:43;13.50;99.90
55693;DHT22;41590;53.366;5.212;2022-10-17T03:45:09;13.60;99.90
55693;DHT22;41590;53.366;5.212;2022-10-17T03:47:34;13.50;99.90
55693;DHT22;41590;53.366;5.212;2022-10-17T03:50:01;13.60;99.90
55693;DHT22;41590;53.366;5.212;2022-10-17T03:52:30;13.60;99.90
55693;DHT22;41590;53.366;5.212;2022-10-17T03:54:57;13.30;99.90
55693;DHT22;41590;53.366;5.212;2022-10-17T03:57:22;13.50;99.90
55693;DHT22;41590;53.366;5.212;2022-10-17T03:59:49;13.50;99.90
55693;DHT22;41590;53.366;5.212;2022-10-17T04:02:16;13.30;99.90
55693;DHT22;41590;53.366;5.212;2022-10-17T04:04:42;13.20;99.90
55693;DHT22;41590;53.366;5.212;2022-10-17T04:07:10;13.10;99.90
55693;DHT22;41590;53.366;5.212;2022-10-17T04:09:36;13.40;99.90
55693;DHT22;41590;53.366;5.212;2022-10-17T04:12:02;13.50;99.90
55693;DHT22;41590;53.366;5.212;2022-10-17T04:14:29;13.20;99.90
55693;DHT22;41590;53.366;5.212;2022-10-17T04:16:56;13.50;99.90
55693;DHT22;41590;53.366;5.212;2022-10-17T04:19:24;13.20;99.90
55693;DHT22;41590;53.366;5.212;2022-10-17T04:21:50;13.30;99.90
55693;DHT22;41590;53.366;5.212;2022-10-17T04:24:16;13.10;99.90
55693;DHT22;41590;53.366;5.212;2022-10-17T04:26:43;13.10;99.90
55693;DHT22;41590;53.366;5.212;2022-10-17T04:29:10;13.30;99.90
55693;DHT22;41590;53.366;5.212;2022-10-17T04:31:40;13.30;99.90
55693;DHT22;41590;53.366;5.212;2022-10-17T04:34:06;13.60;99.90
55693;DHT22;41590;53.366;5.212;2022-10-17T04:36:32;13.20;99.90
55693;DHT22;41590;53.366;5.212;2022-10-17T04:38:59;13.30;99.90
55693;DHT22;41590;53.366;5.212;2022-10-17T04:41:27;13.20;99.90
55693;DHT22;41590;53.366;5.212;2022-10-17T04:43:55;13.60;99.90
55693;DHT22;41590;53.366;5.212;2022-10-17T04:46:22;13.70;99.90
55693;DHT22;41590;53.366;5.212;2022-10-17T04:48:48;13.50;99.90
55693;DHT22;41590;53.366;5.212;2022-10-17T04:51:16;13.50;99.90
55693;DHT22;41590;53.366;5.212;2022-10-17T04:53:43;13.40;99.90
55693;DHT22;41590;53.366;5.212;2022-10-17T04:56:13;13.80;99.90
55693;DHT22;41590;53.366;5.212;2022-10-17T04:58:40;13.60;99.90
55693;DHT22;41590;53.366;5.212;2022-10-17T05:01:07;13.50;99.90
55693;DHT22;41590;53.366;5.212;2022-10-17T05:03:34;13.40;99.90
55693;DHT22;41590;53.366;5.212;2022-10-17T05:06:09;13.70;99.90
55693;DHT22;41590;53.366;5.212;2022-10-17T05:08:36;13.50;99.90
55693;DHT22;41590;53.366;5.212;2022-10-17T05:11:02;13.70;99.90
55693;DHT22;41590;53.366;5.212;2022-10-17T05:13:29;13.50;99.90
55693;DHT22;41590;53.366;5.212;2022-10-17T05:16:00;14.00;99.90
55693;DHT22;41590;53.366;5.212;2022-10-17T05:18:27;13.80;99.90
55693;DHT22;41590;53.366;5.212;2022-10-17T05:20:53;14.00;99.90
55693;DHT22;41590;53.366;5.212;2022-10-17T05:23:19;14.00;99.90
55693;DHT22;41590;53.366;5.212;2022-10-17T05:25:46;14.10;99.90
55693;DHT22;41590;53.366;5.212;2022-10-17T05:28:13;14.10;99.90
55693;DHT22;41590;53.366;5.212;2022-10-17T05:30:40;13.60;99.90
55693;DHT22;41590;53.366;5.212;2022-10-17T05:33:06;14.10;99.90
55693;DHT22;41590;53.366;5.212;2022-10-17T05:35:33;13.60;99.90
55693;DHT22;41590;53.366;5.212;2022-10-17T05:37:59;13.60;99.90
55693;DHT22;41590;53.366;5.212;2022-10-17T05:40:27;13.60;99.90
55693;DHT22;41590;53.366;5.212;2022-10-17T05:42:52;14.10;99.90
55693;DHT22;41590;53.366;5.212;2022-10-17T05:45:23;14.10;99.90
55693;DHT22;41590;53.366;5.212;2022-10-17T05:47:49;13.70;99.90
55693;DHT22;41590;53.366;5.212;2022-10-17T05:50:17;13.90;99.90
55693;DHT22;41590;53.366;5.212;2022-10-17T05:52:54;14.10;99.90
55693;DHT22;41590;53.366;5.212;2022-10-17T05:55:21;13.90;99.90
55693;DHT22;41590;53.366;5.212;2022-10-17T06:00:24;14.50;99.90
55693;DHT22;41590;53.366;5.212;2022-10-17T06:02:55;14.10;99.90
55693;DHT22;41590;53.366;5.212;2022-10-17T06:05:34;14.10;99.90
55693;DHT22;41590;53.366;5.212;2022-10-17T06:08:05;14.50;99.90
55693;DHT22;41590;53.366;5.212;2022-10-17T06:10:35;14.00;99.90
55693;DHT22;41590;53.366;5.212;2022-10-17T06:13:07;14.20;99.90
55693;DHT22;41590;53.366;5.212;2022-10-17T06:15:33;14.70;99.90
55693;DHT22;41590;53.366;5.212;2022-10-17T06:18:01;14.00;99.90
55693;DHT22;41590;53.366;5.212;2022-10-17T06:20:28;14.10;99.90
55693;DHT22;41590;53.366;5.212;2022-10-17T06:22:55;14.40;99.90
55693;DHT22;41590;53.366;5.212;2022-10-17T06:25:22;14.30;99.90
55693;DHT22;41590;53.366;5.212;2022-10-17T06:27:48;14.10;99.90
55693;DHT22;41590;53.366;5.212;2022-10-17T06:30:15;14.00;99.90
55693;DHT22;41590;53.366;5.212;2022-10-17T06:32:42;14.20;99.90
55693;DHT22;41590;53.366;5.212;2022-10-17T06:35:07;14.10;99.90
55693;DHT22;41590;53.366;5.212;2022-10-17T06:37:34;13.90;99.90
55693;DHT22;41590;53.366;5.212;2022-10-17T06:40:01;14.50;99.90
55693;DHT22;41590;53.366;5.212;2022-10-17T06:42:27;14.50;99.90
55693;DHT22;41590;53.366;5.212;2022-10-17T06:44:53;14.10;99.90
55693;DHT22;41590;53.366;5.212;2022-10-17T06:47:19;14.40;99.90
55693;DHT22;41590;53.366;5.212;2022-10-17T06:49:45;14.50;99.90
55693;DHT22;41590;53.366;5.212;2022-10-17T06:52:11;14.50;99.90
55693;DHT22;41590;53.366;5.212;2022-10-17T06:54:37;14.00;99.90
55693;DHT22;41590;53.366;5.212;2022-10-17T06:57:03;14.60;99.90
55693;DHT22;41590;53.366;5.212;2022-10-17T06:59:29;14.10;99.90
55693;DHT22;41590;53.366;5.212;2022-10-17T07:01:56;14.20;99.90
55693;DHT22;41590;53.366;5.212;2022-10-17T07:04:21;14.00;99.90
55693;DHT22;41590;53.366;5.212;2022-10-17T07:09:14;14.80;99.90
55693;DHT22;41590;53.366;5.212;2022-10-17T07:11:41;14.70;99.90
55693;DHT22;41590;53.366;5.212;2022-10-17T07:14:07;14.30;99.90
55693;DHT22;41590;53.366;5.212;2022-10-17T07:16:33;14.50;99.90
55693;DHT22;41590;53.366;5.212;2022-10-17T07:18:59;14.80;99.90
55693;DHT22;41590;53.366;5.212;2022-10-17T07:21:27;14.70;99.90
55693;DHT22;41590;53.366;5.212;2022-10-17T07:23:58;14.60;99.90
55693;DHT22;41590;53.366;5.212;2022-10-17T07:26:25;14.30;99.90
55693;DHT22;41590;53.366;5.212;2022-10-17T07:28:53;14.90;99.90
55693;DHT22;41590;53.366;5.212;2022-10-17T07:31:20;14.90;99.90
55693;DHT22;41590;53.366;5.212;2022-10-17T07:33:47;15.10;99.90
55693;DHT22;41590;53.366;5.212;2022-10-17T07:36:14;14.60;99.90
55693;DHT22;41590;53.366;5.212;2022-10-17T07:38:40;15.10;99.90
55693;DHT22;41590;53.366;5.212;2022-10-17T07:41:08;14.60;99.90
55693;DHT22;41590;53.366;5.212;2022-10-17T07:43:34;14.70;99.90
55693;DHT22;41590;53.366;5.212;2022-10-17T07:46:02;15.20;99.90
55693;DHT22;41590;53.366;5.212;2022-10-17T07:48:28;15.30;99.90
55693;DHT22;41590;53.366;5.212;2022-10-17T07:50:56;14.80;99.90
55693;DHT22;41590;53.366;5.212;2022-10-17T07:53:22;15.20;99.90
55693;DHT22;41590;53.366;5.212;2022-10-17T07:55:48;14.80;99.90
55693;DHT22;41590;53.366;5.212;2022-10-17T07:58:14;15.00;99.90
55693;DHT22;41590;53.366;5.212;2022-10-17T08:00:42;15.30;99.90
55693;DHT22;41590;53.366;5.212;2022-10-17T08:03:09;15.20;99.90
55693;DHT22;41590;53.366;5.212;2022-10-17T08:05:35;15.00;99.90
55693;DHT22;41590;53.366;5.212;2022-10-17T08:08:01;15.30;99.90
55693;DHT22;41590;53.366;5.212;2022-10-17T08:10:27;15.10;99.90
55693;DHT22;41590;53.366;5.212;2022-10-17T08:12:55;14.90;99.90
55693;DHT22;41590;53.366;5.212;2022-10-17T08:15:22;14.90;99.90
55693;DHT22;41590;53.366;5.212;2022-10-17T08:17:49;14.90;99.90
55693;DHT22;41590;53.366;5.212;2022-10-17T08:20:16;14.90;99.90
55693;DHT22;41590;53.366;5.212;2022-10-17T08:22:42;14.90;99.90
55693;DHT22;41590;53.366;5.212;2022-10-17T08:25:15;15.10;99.90
55693;DHT22;41590;53.366;5.212;2022-10-17T08:27:43;15.10;99.90
55693;DHT22;41590;53.366;5.212;2022-10-17T08:30:09;15.00;99.90
55693;DHT22;41590;53.366;5.212;2022-10-17T08:32:35;15.00;99.90
55693;DHT22;41590;53.366;5.212;2022-10-17T08:35:01;15.40;99.90
55693;DHT22;41590;53.366;5.212;2022-10-17T08:37:27;15.60;99.90
55693;DHT22;41590;53.366;5.212;2022-10-17T08:39:54;15.50;99.90
55693;DHT22;41590;53.366;5.212;2022-10-17T08:42:55;15.90;99.90
55693;DHT22;41590;53.366;5.212;2022-10-17T08:45:32;15.40;99.90
55693;DHT22;41590;53.366;5.212;2022-10-17T08:48:03;15.70;99.90
55693;DHT22;41590;53.366;5.212;2022-10-17T08:50:35;16.00;99.90
55693;DHT22;41590;53.366;5.212;2022-10-17T08:53:14;15.90;99.90
55693;DHT22;41590;53.366;5.212;2022-10-17T08:55:45;15.60;99.90
55693;DHT22;41590;53.366;5.212;2022-10-17T08:58:23;15.40;99.90
55693;DHT22;41590;53.366;5.212;2022-10-17T09:03:56;15.30;99.90
55693;DHT22;41590;53.366;5.212;2022-10-17T09:06:33;15.40;99.90
55693;DHT22;41590;53.366;5.212;2022-10-17T09:12:19;15.40;99.90
55693;DHT22;41590;53.366;5.212;2022-10-17T09:17:59;15.40;99.90
55693;DHT22;41590;53.366;5.212;2022-10-17T09:20:39;15.20;99.90
55693;DHT22;41590;53.366;5.212;2022-10-17T09:23:20;15.70;99.90
55693;DHT22;41590;53.366;5.212;2022-10-17T09:25:54;15.60;99.90
55693;DHT22;41590;53.366;5.212;2022-10-17T09:28:37;15.70;99.90
55693;DHT22;41590;53.366;5.212;2022-10-17T09:31:23;15.20;99.90
55693;DHT22;41590;53.366;5.212;2022-10-17T09:33:58;15.40;99.90
55693;DHT22;41590;53.366;5.212;2022-10-17T09:36:29;15.40;99.90
55693;DHT22;41590;53.366;5.212;2022-10-17T09:38:59;15.40;99.90
55693;DHT22;41590;53.366;5.212;2022-10-17T09:41:42;15.30;99.90
55693;DHT22;41590;53.366;5.212;2022-10-17T09:46:39;15.50;99.90
55693;DHT22;41590;53.366;5.212;2022-10-17T09:49:11;15.80;99.90
55693;DHT22;41590;53.366;5.212;2022-10-17T09:51:39;15.90;99.90
55693;DHT22;41590;53.366;5.212;2022-10-17T09:54:25;15.70;99.90
55693;DHT22;41590;53.366;5.212;2022-10-17T09:56:57;15.80;99.90
55693;DHT22;41590;53.366;5.212;2022-10-17T09:59:39;16.00;99.90
55693;DHT22;41590;53.366;5.212;2022-10-17T10:02:21;15.80;99.90
55693;DHT22;41590;53.366;5.212;2022-10-17T10:05:00;16.00;99.90
55693;DHT22;41590;53.366;5.212;2022-10-17T10:07:29;16.10;99.90
55693;DHT22;41590;53.366;5.212;2022-10-17T10:09:56;15.80;99.90
55693;DHT22;41590;53.366;5.212;2022-10-17T10:12:35;15.60;99.90
55693;DHT22;41590;53.366;5.212;2022-10-17T10:15:01;15.70;99.90
55693;DHT22;41590;53.366;5.212;2022-10-17T10:17:37;16.20;99.90
55693;DHT22;41590;53.366;5.212;2022-10-17T10:20:38;16.10;99.90
55693;DHT22;41590;53.366;5.212;2022-10-17T10:23:24;16.10;99.90
55693;DHT22;41590;53.366;5.212;2022-10-17T10:25:57;15.70;99.90
55693;DHT22;41590;53.366;5.212;2022-10-17T10:28:32;15.70;99.90
55693;DHT22;41590;53.366;5.212;2022-10-17T10:31:05;15.70;99.90
55693;DHT22;41590;53.366;5.212;2022-10-17T10:33:33;15.70;99.90
55693;DHT22;41590;53.366;5.212;2022-10-17T10:36:02;16.30;99.90
55693;DHT22;41590;53.366;5.212;2022-10-17T10:38:30;15.80;99.90
55693;DHT22;41590;53.366;5.212;2022-10-17T10:41:06;16.40;99.90
55693;DHT22;41590;53.366;5.212;2022-10-17T10:43:39;16.40;99.90
55693;DHT22;41590;53.366;5.212;2022-10-17T10:46:24;16.20;99.90
55693;DHT22;41590;53.366;5.212;2022-10-17T10:51:53;16.00;99.90
55693;DHT22;41590;53.366;5.212;2022-10-17T10:54:39;16.40;99.90
55693;DHT22;41590;53.366;5.212;2022-10-17T10:57:12;16.60;99.90
55693;DHT22;41590;53.366;5.212;2022-10-17T11:03:30;16.10;99.90
55693;DHT22;41590;53.366;5.212;2022-10-17T11:06:05;16.30;99.90
55693;DHT22;41590;53.366;5.212;2022-10-17T11:09:22;16.30;99.90
55693;DHT22;41590;53.366;5.212;2022-10-17T11:11:48;16.50;99.90
55693;DHT22;41590;53.366;5.212;2022-10-17T11:14:50;16.80;99.90
55693;DHT22;41590;53.366;5.212;2022-10-17T11:17:37;16.40;99.90
55693;DHT22;41590;53.366;5.212;2022-10-17T11:22:45;16.30;99.90
55693;DHT22;41590;53.366;5.212;2022-10-17T11:28:08;16.40;99.90
55693;DHT22;41590;53.366;5.212;2022-10-17T11:33:53;16.40;99.90
55693;DHT22;41590;53.366;5.212;2022-10-17T11:36:33;15.90;99.90
55693;DHT22;41590;53.366;5.212;2022-10-17T11:45:21;16.40;99.90
55693;DHT22;41590;53.366;5.212;2022-10-17T11:47:57;16.20;99.90
55693;DHT22;41590;53.366;5.212;2022-10-17T11:50:38;16.10;99.90
55693;DHT22;41590;53.366;5.212;2022-10-17T12:08:08;16.30;99.90
55693;DHT22;41590;53.366;5.212;2022-10-17T12:19:23;17.00;99.90
55693;DHT22;41590;53.366;5.212;2022-10-17T12:27:43;16.80;99.90
55693;DHT22;41590;53.366;5.212;2022-10-17T12:30:24;16.60;99.90
55693;DHT22;41590;53.366;5.212;2022-10-17T12:53:04;16.80;99.90
55693;DHT22;41590;53.366;5.212;2022-10-17T12:55:40;16.90;99.90
55693;DHT22;41590;53.366;5.212;2022-10-17T12:58:17;16.90;99.90
55693;DHT22;41590;53.366;5.212;2022-10-17T13:00:55;16.50;99.90
55693;DHT22;41590;53.366;5.212;2022-10-17T13:06:00;17.10;99.90
55693;DHT22;41590;53.366;5.212;2022-10-17T13:08:29;16.80;99.90
55693;DHT22;41590;53.366;5.212;2022-10-17T13:10:58;17.10;99.90
55693;DHT22;41590;53.366;5.212;2022-10-17T13:13:45;17.20;99.90
55693;DHT22;41590;53.366;5.212;2022-10-17T13:19:45;17.10;99.90
55693;DHT22;41590;53.366;5.212;2022-10-17T13:22:33;16.80;99.90
55693;DHT22;41590;53.366;5.212;2022-10-17T13:25:16;17.10;99.90
55693;DHT22;41590;53.366;5.212;2022-10-17T13:27:44;17.00;99.90
55693;DHT22;41590;53.366;5.212;2022-10-17T13:30:29;17.20;99.90
55693;DHT22;41590;53.366;5.212;2022-10-17T13:33:02;17.40;99.90
55693;DHT22;41590;53.366;5.212;2022-10-17T13:35:33;17.00;99.90
55693;DHT22;41590;53.366;5.212;2022-10-17T13:41:44;17.30;99.90
55693;DHT22;41590;53.366;5.212;2022-10-17T13:47:38;17.20;99.90
55693;DHT22;41590;53.366;5.212;2022-10-17T13:53:50;17.20;99.90
55693;DHT22;41590;53.366;5.212;2022-10-17T13:56:29;17.20;99.90
55693;DHT22;41590;53.366;5.212;2022-10-17T13:59:05;16.90;99.90
55693;DHT22;41590;53.366;5.212;2022-10-17T14:01:37;17.20;99.90
55693;DHT22;41590;53.366;5.212;2022-10-17T14:04:08;17.20;99.90
55693;DHT22;41590;53.366;5.212;2022-10-17T14:06:41;17.10;99.90
55693;DHT22;41590;53.366;5.212;2022-10-17T14:09:28;17.00;99.90
55693;DHT22;41590;53.366;5.212;2022-10-17T14:12:14;16.90;99.90
55693;DHT22;41590;53.366;5.212;2022-10-17T14:14:52;16.90;99.90
55693;DHT22;41590;53.366;5.212;2022-10-17T14:17:31;16.80;99.90
55693;DHT22;41590;53.366;5.212;2022-10-17T14:20:02;16.60;99.90
55693;DHT22;41590;53.366;5.212;2022-10-17T14:22:38;16.60;99.90
55693;DHT22;41590;53.366;5.212;2022-10-17T14:25:33;16.70;99.90
55693;DHT22;41590;53.366;5.212;2022-10-17T14:28:15;16.70;99.90
55693;DHT22;41590;53.366;5.212;2022-10-17T14:30:48;16.90;99.90
55693;DHT22;41590;53.366;5.212;2022-10-17T14:33:29;16.80;99.90
55693;DHT22;41590;53.366;5.212;2022-10-17T14:35:58;16.90;99.90
55693;DHT22;41590;53.366;5.212;2022-10-17T14:38:25;16.90;99.90
55693;DHT22;41590;53.366;5.212;2022-10-17T14:44:14;16.60;99.90
55693;DHT22;41590;53.366;5.212;2022-10-17T14:47:03;16.90;99.90
55693;DHT22;41590;53.366;5.212;2022-10-17T14:49:42;16.90;99.90
55693;DHT22;41590;53.366;5.212;2022-10-17T14:54:48;16.50;99.90
55693;DHT22;41590;53.366;5.212;2022-10-17T15:01:17;16.70;99.90
55693;DHT22;41590;53.366;5.212;2022-10-17T15:03:49;16.50;99.90
55693;DHT22;41590;53.366;5.212;2022-10-17T15:06:30;16.80;99.90
55693;DHT22;41590;53.366;5.212;2022-10-17T15:09:21;16.70;99.90
55693;DHT22;41590;53.366;5.212;2022-10-17T15:11:58;16.60;99.90
55693;DHT22;41590;53.366;5.212;2022-10-17T15:14:31;16.50;99.90
55693;DHT22;41590;53.366;5.212;2022-10-17T15:17:13;16.50;99.90
55693;DHT22;41590;53.366;5.212;2022-10-17T15:19:42;16.60;99.90
55693;DHT22;41590;53.366;5.212;2022-10-17T15:22:27;16.60;99.90
55693;DHT22;41590;53.366;5.212;2022-10-17T15:25:04;16.40;99.90
55693;DHT22;41590;53.366;5.212;2022-10-17T15:27:38;16.50;99.90
55693;DHT22;41590;53.366;5.212;2022-10-17T15:33:15;16.30;99.90
55693;DHT22;41590;53.366;5.212;2022-10-17T15:35:45;16.50;99.90
55693;DHT22;41590;53.366;5.212;2022-10-17T15:38:22;16.40;99.90
55693;DHT22;41590;53.366;5.212;2022-10-17T15:40:50;16.50;99.90
55693;DHT22;41590;53.366;5.212;2022-10-17T15:43:30;16.50;99.90
55693;DHT22;41590;53.366;5.212;2022-10-17T15:45:59;16.50;99.90
55693;DHT22;41590;53.366;5.212;2022-10-17T15:48:28;16.10;99.90
55693;DHT22;41590;53.366;5.212;2022-10-17T15:51:02;16.00;99.90
55693;DHT22;41590;53.366;5.212;2022-10-17T15:53:38;16.30;99.90
55693;DHT22;41590;53.366;5.212;2022-10-17T15:56:18;15.90;99.90
55693;DHT22;41590;53.366;5.212;2022-10-17T15:58:51;16.30;99.90
55693;DHT22;41590;53.366;5.212;2022-10-17T16:01:36;15.90;99.90
55693;DHT22;41590;53.366;5.212;2022-10-17T16:04:05;16.20;99.90
55693;DHT22;41590;53.366;5.212;2022-10-17T16:06:33;15.90;99.90
55693;DHT22;41590;53.366;5.212;2022-10-17T16:09:00;15.80;99.90
55693;DHT22;41590;53.366;5.212;2022-10-17T16:14:16;15.70;99.90
55693;DHT22;41590;53.366;5.212;2022-10-17T16:16:52;15.80;99.90
55693;DHT22;41590;53.366;5.212;2022-10-17T16:19:18;16.10;99.90
55693;DHT22;41590;53.366;5.212;2022-10-17T16:21:45;14.60;99.90
55693;DHT22;41590;53.366;5.212;2022-10-17T16:24:13;15.30;99.90
55693;DHT22;41590;53.366;5.212;2022-10-17T16:26:47;15.80;99.90
55693;DHT22;41590;53.366;5.212;2022-10-17T16:29:17;15.50;99.90
55693;DHT22;41590;53.366;5.212;2022-10-17T16:31:57;15.20;99.90
55693;DHT22;41590;53.366;5.212;2022-10-17T16:34:34;15.20;99.90
55693;DHT22;41590;53.366;5.212;2022-10-17T16:37:00;15.40;99.90
55693;DHT22;41590;53.366;5.212;2022-10-17T16:39:25;15.50;99.90
55693;DHT22;41590;53.366;5.212;2022-10-17T16:41:52;15.00;99.90
55693;DHT22;41590;53.366;5.212;2022-10-17T16:44:18;15.40;99.90
55693;DHT22;41590;53.366;5.212;2022-10-17T16:46:44;15.40;99.90
55693;DHT22;41590;53.366;5.212;2022-10-17T16:49:09;15.40;99.90
55693;DHT22;41590;53.366;5.212;2022-10-17T16:51:36;14.90;99.90
55693;DHT22;41590;53.366;5.212;2022-10-17T16:54:03;15.20;99.90
55693;DHT22;41590;53.366;5.212;2022-10-17T16:56:30;15.20;99.90
55693;DHT22;41590;53.366;5.212;2022-10-17T16:58:58;15.10;99.90
55693;DHT22;41590;53.366;5.212;2022-10-17T17:01:25;15.10;99.90
55693;DHT22;41590;53.366;5.212;2022-10-17T17:03:52;14.70;99.90
55693;DHT22;41590;53.366;5.212;2022-10-17T17:06:23;15.10;99.90
55693;DHT22;41590;53.366;5.212;2022-10-17T17:08:51;14.60;99.90
55693;DHT22;41590;53.366;5.212;2022-10-17T17:11:18;14.60;99.90
55693;DHT22;41590;53.366;5.212;2022-10-17T17:13:44;14.60;99.90
55693;DHT22;41590;53.366;5.212;2022-10-17T17:16:18;15.00;99.90
55693;DHT22;41590;53.366;5.212;2022-10-17T17:18:46;14.40;99.90
55693;DHT22;41590;53.366;5.212;2022-10-17T17:21:14;14.90;99.90
55693;DHT22;41590;53.366;5.212;2022-10-17T17:23:41;14.40;99.90
55693;DHT22;41590;53.366;5.212;2022-10-17T17:26:16;14.40;99.90
55693;DHT22;41590;53.366;5.212;2022-10-17T17:28:43;14.60;99.90
55693;DHT22;41590;53.366;5.212;2022-10-17T17:31:13;14.40;99.90
55693;DHT22;41590;53.366;5.212;2022-10-17T17:33:54;14.80;99.90
55693;DHT22;41590;53.366;5.212;2022-10-17T17:36:31;14.70;99.90
55693;DHT22;41590;53.366;5.212;2022-10-17T17:39:07;14.80;99.90
55693;DHT22;41590;53.366;5.212;2022-10-17T17:41:36;14.40;99.90
55693;DHT22;41590;53.366;5.212;2022-10-17T17:44:11;14.60;99.90
55693;DHT22;41590;53.366;5.212;2022-10-17T17:46:37;14.40;99.90
55693;DHT22;41590;53.366;5.212;2022-10-17T17:49:03;14.60;99.90
55693;DHT22;41590;53.366;5.212;2022-10-17T17:51:36;14.80;99.90
55693;DHT22;41590;53.366;5.212;2022-10-17T17:54:02;14.50;99.90
55693;DHT22;41590;53.366;5.212;2022-10-17T17:56:29;14.80;99.90
55693;DHT22;41590;53.366;5.212;2022-10-17T17:58:57;14.60;99.90
55693;DHT22;41590;53.366;5.212;2022-10-17T18:01:25;14.70;99.90
55693;DHT22;41590;53.366;5.212;2022-10-17T18:03:52;14.60;99.90
55693;DHT22;41590;53.366;5.212;2022-10-17T18:06:21;14.40;99.90
55693;DHT22;41590;53.366;5.212;2022-10-17T18:08:49;14.20;99.90
55693;DHT22;41590;53.366;5.212;2022-10-17T18:11:18;14.70;99.90
55693;DHT22;41590;53.366;5.212;2022-10-17T18:13:43;14.70;99.90
55693;DHT22;41590;53.366;5.212;2022-10-17T18:16:10;14.10;99.90
55693;DHT22;41590;53.366;5.212;2022-10-17T18:18:43;14.20;99.90
55693;DHT22;41590;53.366;5.212;2022-10-17T18:21:11;14.60;99.90
55693;DHT22;41590;53.366;5.212;2022-10-17T18:23:42;14.60;99.90
55693;DHT22;41590;53.366;5.212;2022-10-17T18:26:10;14.20;99.90
55693;DHT22;41590;53.366;5.212;2022-10-17T18:28:38;14.50;99.90
55693;DHT22;41590;53.366;5.212;2022-10-17T18:31:17;14.10;99.90
55693;DHT22;41590;53.366;5.212;2022-10-17T18:33:45;14.30;99.90
55693;DHT22;41590;53.366;5.212;2022-10-17T18:36:13;14.00;99.90